الصفحة الرئيسية
METAR-TAF:

METAR-TAF

مطار :

Mandalay, بورما

دائرة عرض: 21-59N, خط طول: 096-06E, ارتفاع: 74 متر

مراقبة الطقس الحالي

تاريخ ووقت الإصدار 9ساعات و 57 دقيقة قبل الساعة 11:30UTC
ريح 10 عقدة من الجنوب تتزايد حتى 20 عقدة
درجة الحرارة 31°درجة مئوية
الرطوبة 59%
ضغط
الرؤية: 1001 متر
غيوم مفككة على ارتفاع 1800 قدم
غيوم قليلة على ارتفاع 2000 قدم, مزنة ركامية.
ملبد بالغيوم على ارتفاع 9000 قدم
رذاذ

METAR: VYMD 131130Z 18010G20KT 6000 DZ BKN018 FEW020CB OVC090 31/22 1001

زمن: 03:57 (21:27 UTC)

توقعات

تاريخ ووقت الإصدار 4ساعات و 27 دقيقة قبل الساعة 17:00UTC
التوقعات صالحة من13 الساعة 18 UTC إلى 14 الساعة 18 UTC
ريح 10 عقدة من الجنوب تتزايد حتى 20 عقدة
الرؤية: 7000 متر
غيوم مفككة على ارتفاع 2000 قدم
غيوم مفككة على ارتفاع 12000 قدم
مؤقت
من 13 الساعة 18 UTC إلى 13 الساعة 24 UTC
ريح 8 عقدة من الجنوب الشرقي تتزايد حتى 20 عقدة
الرؤية: 6000 متر
غيوم مفككة على ارتفاع 2000 قدم
غيوم قليلة على ارتفاع 2500 قدم, مزنة ركامية.
غيوم مفككة على ارتفاع 10000 قدم

TAF: VYMD 131700Z 1318/1418 18010G20KT 7000 BKN020 BKN120 TEMPO 1318/1324 14008G20KT 6000 BKN020 FEW025CB BKN100

أرصاد الطقس والتوقعات من أكثر من 4000 مطار (تقارير الطقس للمطار METAR والتنبؤ بالطقس بالمطارTAF).

المحطات المتاحة هي النقط الصفراء والحمراء على الخريطة.

حرك المؤشر فوق النقطة لمعرفة اسم المحطة.

ثم انقر لمعرفة أرصاد وتوقعات الطقس.

لتغيير الخارطة: اضغط على الأزرار الخضراء مع رمز الصليب الأسود للتكبير. على الزر الأخضر مع شرطة للتصغير، أو على الأسهم الخضراء للخرائط المجاورة.


METAR-TAF: